Terminal Aerodrome Forecast
Issued by NWS Chicago, IL

Home | Current Version | Previous Version | Text Only | Print | Product List | Glossary Off
Versions: 1 2 3 4 5 6 7 8 9 10 11 12 13 14 15 16 17 18 19 20 21 22 23 24 25 26 27 28 29 30 31 32

000
FTUS43 KLOT 160000 AAA
TAFRFD
TAF AMD
KRFD 160014Z 1600/1624 36007KT P6SM SCT020 SCT040
     FM160130 33005KT P6SM SKC
      TEMPO 1608/1612 5SM BR BCFG
     FM161700 30006KT P6SM SCT030=

USA.gov is the U.S. government's official web portal to all federal, state and local government web resources and services.